Time;durP1;ratioP1;P1;durP2;ratioP2;P2;SDS_P1;SDS_P2;PMS_P1;PMS_P2;Temp;Humidity;BMP_temperature;BMP_pressure;BME280_temperature;BME280_humidity;BME280_pressure;Samples;Min_cycle;Max_cycle;Signal;HPM_P1;HPM_P2
2022/02/28 00:01:59;;;;;;;9.68;6.30;;;7.20;99.90;;;;;;5016169;28;20120;-92
2022/02/28 00:04:25;;;;;;;10.90;6.35;;;7.10;99.90;;;;;;5033099;28;20025;-91
2022/02/28 00:06:52;;;;;;;8.80;6.10;;;7.50;99.90;;;;;;5033888;28;20079;-92
2022/02/28 00:09:18;;;;;;;9.43;5.70;;;7.20;99.90;;;;;;5033199;28;20492;-92
2022/02/28 00:11:44;;;;;;;6.90;5.30;;;7.20;99.90;;;;;;5014515;28;20026;-91
2022/02/28 00:14:09;;;;;;;6.93;5.35;;;7.10;99.90;;;;;;5025816;28;20021;-92
2022/02/28 00:16:35;;;;;;;8.93;4.93;;;7.40;99.90;;;;;;5016316;28;20026;-92
2022/02/28 00:19:01;;;;;;;8.52;5.07;;;7.00;99.90;;;;;;5016106;28;20034;-92
2022/02/28 00:21:26;;;;;;;7.97;5.38;;;7.60;99.90;;;;;;5016611;28;20059;-92
2022/02/28 00:23:53;;;;;;;7.78;5.10;;;6.90;99.90;;;;;;5033384;28;20034;-91
2022/02/28 00:26:18;;;;;;;9.68;5.75;;;7.10;99.90;;;;;;5034117;28;20025;-91
2022/02/28 00:28:44;;;;;;;8.98;5.10;;;7.20;99.90;;;;;;5037653;28;20103;-92
2022/02/28 00:31:09;;;;;;;6.85;4.93;;;6.90;99.90;;;;;;5021010;28;20021;-92
2022/02/28 00:33:35;;;;;;;8.98;5.15;;;7.30;99.90;;;;;;5036493;28;20024;-91
2022/02/28 00:36:01;;;;;;;6.22;4.80;;;6.80;99.90;;;;;;5035434;28;20041;-92
2022/02/28 00:38:27;;;;;;;7.90;5.20;;;6.90;99.90;;;;;;5020218;28;20153;-92
2022/02/28 00:40:52;;;;;;;7.00;4.45;;;6.70;99.90;;;;;;5020975;28;20048;-92
2022/02/28 00:43:18;;;;;;;7.10;5.03;;;6.80;99.90;;;;;;5019247;28;20060;-92
2022/02/28 00:45:44;;;;;;;7.45;4.68;;;6.70;99.90;;;;;;5018171;28;20060;-92
2022/02/28 00:48:10;;;;;;;6.93;4.78;;;6.80;99.90;;;;;;5021073;28;20021;-92
2022/02/28 00:50:36;;;;;;;8.63;5.28;;;7.10;99.90;;;;;;5019066;28;20041;-91
2022/02/28 00:53:03;;;;;;;6.20;4.68;;;6.60;99.90;;;;;;5035565;28;20097;-92
2022/02/28 00:55:29;;;;;;;7.88;5.05;;;6.60;99.90;;;;;;5018880;28;20120;-91
2022/02/28 00:57:54;;;;;;;9.10;5.43;;;6.60;99.90;;;;;;5035954;28;20049;-92
2022/02/28 01:00:21;;;;;;;7.90;5.07;;;7.20;99.90;;;;;;5018302;28;20044;-91
2022/02/28 01:02:47;;;;;;;9.20;4.85;;;6.60;99.90;;;;;;5020103;28;20022;-92
2022/02/28 01:05:14;;;;;;;6.15;5.13;;;6.80;99.90;;;;;;5036247;28;20447;-92
2022/02/28 01:07:40;;;;;;;7.25;5.18;;;6.60;99.90;;;;;;5035378;28;20480;-92
2022/02/28 01:10:09;;;;;;;7.68;4.85;;;6.80;99.90;;;;;;5035418;28;20021;-92
2022/02/28 01:12:35;;;;;;;11.60;5.45;;;6.50;99.90;;;;;;5035621;28;20044;-92
2022/02/28 01:15:01;;;;;;;7.72;4.90;;;6.50;99.90;;;;;;5035406;28;20029;-92
2022/02/28 01:17:27;;;;;;;8.68;5.20;;;6.40;99.90;;;;;;5034280;28;20021;-92
2022/02/28 01:19:52;;;;;;;9.45;4.93;;;6.70;99.90;;;;;;5034852;28;20064;-92
2022/02/28 01:22:18;;;;;;;7.85;5.10;;;6.40;99.90;;;;;;5034826;28;20036;-92
2022/02/28 01:24:44;;;;;;;9.40;5.40;;;6.80;99.90;;;;;;5035025;28;20033;-92
2022/02/28 01:27:09;;;;;;;6.82;4.93;;;6.40;99.90;;;;;;5035515;28;20030;-92
2022/02/28 01:29:35;;;;;;;7.85;5.03;;;6.40;99.90;;;;;;5035443;28;20034;-92
2022/02/28 01:32:03;;;;;;;7.38;4.80;;;6.40;99.90;;;;;;5034608;28;20132;-93
2022/02/28 01:34:29;;;;;;;8.40;4.95;;;6.40;99.90;;;;;;5020602;28;20116;-92
2022/02/28 01:36:55;;;;;;;8.30;5.05;;;6.50;99.90;;;;;;5033566;28;20112;-92
2022/02/28 01:39:21;;;;;;;9.05;5.90;;;6.60;99.90;;;;;;5016626;28;20033;-92
2022/02/28 01:41:47;;;;;;;8.77;5.90;;;6.90;99.90;;;;;;5017487;28;20080;-92
2022/02/28 01:44:13;;;;;;;6.65;4.75;;;6.50;99.90;;;;;;5034304;28;20034;-92
2022/02/28 01:46:40;;;;;;;8.85;5.15;;;6.40;99.90;;;;;;5019728;28;20056;-91
2022/02/28 01:49:06;;;;;;;9.48;5.50;;;6.40;99.90;;;;;;5035065;28;20021;-91
2022/02/28 01:51:35;;;;;;;8.55;5.63;;;6.30;99.90;;;;;;5017173;28;20482;-91
2022/02/28 01:54:01;;;;;;;8.25;5.85;;;6.80;99.90;;;;;;5035090;28;20037;-91
2022/02/28 01:56:26;;;;;;;8.27;5.55;;;6.40;99.90;;;;;;5034551;28;20026;-91
2022/02/28 01:58:52;;;;;;;8.65;5.03;;;6.30;99.90;;;;;;5034029;28;20043;-91
2022/02/28 02:01:18;;;;;;;7.95;5.20;;;6.20;99.90;;;;;;5034948;28;20031;-91
2022/02/28 02:03:43;;;;;;;6.68;4.72;;;6.30;99.90;;;;;;5034559;28;20381;-91
2022/02/28 02:06:10;;;;;;;7.22;5.05;;;6.30;99.90;;;;;;5017294;28;20083;-91
2022/02/28 02:08:37;;;;;;;9.13;4.97;;;6.40;99.90;;;;;;5017763;28;20064;-88
2022/02/28 02:11:04;;;;;;;7.97;5.45;;;6.40;99.90;;;;;;5034693;28;20029;-91
2022/02/28 02:13:32;;;;;;;7.90;4.95;;;6.40;99.90;;;;;;5033906;28;20037;-91
2022/02/28 02:15:59;;;;;;;7.88;5.28;;;6.30;99.90;;;;;;5017827;28;20497;-91
2022/02/28 02:18:25;;;;;;;7.70;4.55;;;6.80;99.90;;;;;;5029270;28;20083;-91
2022/02/28 02:20:51;;;;;;;9.70;5.15;;;6.10;99.90;;;;;;5017439;28;20044;-91
2022/02/28 02:23:17;;;;;;;8.55;5.03;;;6.40;99.90;;;;;;5017891;28;20056;-91
2022/02/28 02:25:44;;;;;;;7.57;5.05;;;6.10;99.90;;;;;;5017799;28;20121;-91
2022/02/28 02:28:12;;;;;;;7.57;5.13;;;6.40;99.90;;;;;;5016882;28;20028;-91
2022/02/28 02:30:37;;;;;;;9.02;5.40;;;6.30;99.90;;;;;;5033668;28;20504;-91
2022/02/28 02:33:03;;;;;;;9.90;5.32;;;6.30;99.90;;;;;;5017073;28;20145;-91
2022/02/28 02:35:31;;;;;;;8.52;5.30;;;6.10;99.90;;;;;;5018304;28;20470;-91
2022/02/28 02:37:57;;;;;;;7.57;5.13;;;6.60;99.90;;;;;;5033051;28;20148;-92
2022/02/28 02:40:22;;;;;;;8.23;4.97;;;6.60;99.90;;;;;;5016643;28;20124;-92
2022/02/28 02:42:48;;;;;;;8.55;5.50;;;6.10;99.90;;;;;;5014958;28;20029;-91
2022/02/28 02:45:14;;;;;;;7.97;5.00;;;6.00;99.90;;;;;;5018117;28;20133;-92
2022/02/28 02:47:40;;;;;;;8.07;5.25;;;6.00;99.90;;;;;;5033116;28;20049;-92
2022/02/28 02:50:07;;;;;;;6.57;4.90;;;6.70;99.90;;;;;;5033286;28;20055;-91
2022/02/28 02:52:34;;;;;;;7.10;5.07;;;6.10;99.90;;;;;;5033476;28;20068;-92
2022/02/28 02:55:01;;;;;;;8.13;5.05;;;6.10;99.90;;;;;;5016650;28;20036;-91
2022/02/28 02:57:26;;;;;;;7.18;4.97;;;6.00;99.90;;;;;;5033309;28;20025;-93
2022/02/28 02:59:52;;;;;;;9.05;5.35;;;5.90;99.90;;;;;;5018188;28;20045;-92
2022/02/28 03:02:18;;;;;;;6.45;5.05;;;6.00;99.90;;;;;;5018394;28;20106;-93
2022/02/28 03:04:44;;;;;;;6.47;4.65;;;6.40;99.90;;;;;;5019599;28;20048;-92
2022/02/28 03:07:17;;;;;;;7.00;4.88;;;6.40;99.90;;;;;;5016592;28;20026;-91
2022/02/28 03:09:43;;;;;;;11.40;5.30;;;6.00;99.90;;;;;;5015753;28;20033;-91
2022/02/28 03:12:09;;;;;;;7.15;4.97;;;5.90;99.90;;;;;;5031265;28;20014;-92
2022/02/28 03:14:35;;;;;;;9.20;5.07;;;5.90;99.90;;;;;;5018278;28;20034;-93
2022/02/28 03:17:00;;;;;;;8.75;5.40;;;5.90;99.90;;;;;;5017055;28;20017;-91
2022/02/28 03:19:26;;;;;;;7.13;5.40;;;5.90;99.90;;;;;;5017323;28;20570;-92
2022/02/28 03:21:54;;;;;;;6.80;5.20;;;6.00;99.90;;;;;;5016372;28;20022;-92
2022/02/28 03:24:20;;;;;;;6.90;4.65;;;6.20;99.90;;;;;;5033746;28;20112;-92
2022/02/28 03:26:45;;;;;;;6.95;4.40;;;6.20;1.00;;;;;;5018743;28;20045;-92
2022/02/28 03:29:12;;;;;;;6.57;4.53;;;5.80;99.90;;;;;;5018073;28;20033;-92
2022/02/28 03:31:37;;;;;;;7.15;4.57;;;6.20;99.90;;;;;;5017068;28;20378;-92
2022/02/28 03:34:04;;;;;;;6.82;5.05;;;5.60;99.90;;;;;;5033067;28;20017;-92
2022/02/28 03:36:29;;;;;;;6.50;4.72;;;6.20;1.00;;;;;;5015499;28;20037;-91
2022/02/28 03:38:55;;;;;;;8.30;4.90;;;6.40;99.90;;;;;;5016617;28;20149;-92
2022/02/28 03:41:21;;;;;;;6.85;5.07;;;5.80;99.90;;;;;;5016487;28;20440;-92
2022/02/28 03:43:46;;;;;;;7.45;4.95;;;6.10;99.90;;;;;;5016612;28;20025;-91
2022/02/28 03:46:12;;;;;;;10.55;5.47;;;5.80;99.90;;;;;;5015624;28;20498;-92
2022/02/28 03:48:38;;;;;;;7.25;4.43;;;6.30;99.90;;;;;;5033778;28;20029;-92
2022/02/28 03:51:04;;;;;;;9.10;5.00;;;5.80;99.90;;;;;;5016062;28;20029;-92
2022/02/28 03:53:31;;;;;;;6.95;5.03;;;5.90;99.90;;;;;;5033286;28;20029;-91
2022/02/28 03:55:57;;;;;;;8.55;5.07;;;5.80;1.00;;;;;;5032424;28;20025;-92
2022/02/28 03:58:23;;;;;;;7.57;5.03;;;5.80;99.90;;;;;;5032944;28;20043;-92
2022/02/28 04:00:49;;;;;;;7.68;5.30;;;6.20;1.00;;;;;;5016043;28;20041;-92
2022/02/28 04:03:15;;;;;;;9.27;5.03;;;5.70;99.90;;;;;;5019659;28;20515;-92
2022/02/28 04:05:41;;;;;;;8.70;4.97;;;5.70;99.90;;;;;;5021280;28;20029;-92
2022/02/28 04:08:06;;;;;;;6.47;4.93;;;6.00;99.90;;;;;;5020260;28;20036;-92
2022/02/28 04:10:32;;;;;;;6.93;4.55;;;6.30;99.90;;;;;;5035476;28;20029;-92
2022/02/28 04:12:58;;;;;;;6.65;4.50;;;6.20;99.90;;;;;;5020043;28;20025;-92
2022/02/28 04:15:24;;;;;;;6.70;4.63;;;6.00;99.90;;;;;;5037701;28;20025;-92
2022/02/28 04:17:49;;;;;;;5.95;4.35;;;5.60;99.90;;;;;;5020128;28;20101;-92
2022/02/28 04:20:15;;;;;;;7.07;4.75;;;6.10;99.90;;;;;;5020560;28;20120;-92
2022/02/28 04:22:41;;;;;;;6.78;4.40;;;6.00;99.90;;;;;;5020021;28;20093;-93
2022/02/28 04:25:08;;;;;;;5.90;4.65;;;5.40;99.90;;;;;;5019774;28;20033;-92
2022/02/28 04:27:33;;;;;;;6.90;4.60;;;5.30;99.90;;;;;;5037633;28;20034;-92
2022/02/28 04:29:59;;;;;;;9.50;4.85;;;5.20;99.90;;;;;;5036340;28;20059;-92
2022/02/28 04:32:25;;;;;;;6.43;4.05;;;5.10;99.90;;;;;;5036396;28;20032;-93
2022/02/28 04:34:51;;;;;;;6.25;4.32;;;5.20;99.90;;;;;;5047219;28;20033;-92
2022/02/28 04:37:16;;;;;;;7.55;4.65;;;5.60;99.90;;;;;;5039152;28;20053;-92
2022/02/28 04:39:42;;;;;;;9.15;4.40;;;5.80;99.90;;;;;;5037454;28;21253;-92
2022/02/28 04:42:08;;;;;;;6.97;4.32;;;5.60;99.90;;;;;;5036101;28;20374;-92
2022/02/28 04:44:34;;;;;;;7.18;4.72;;;5.10;99.90;;;;;;5036989;28;20037;-92
2022/02/28 04:46:59;;;;;;;8.10;4.55;;;5.20;99.90;;;;;;5034974;28;20033;-92
2022/02/28 04:49:25;;;;;;;7.60;4.45;;;5.60;99.90;;;;;;5036606;28;20030;-92
2022/02/28 04:51:50;;;;;;;9.60;4.63;;;5.80;99.90;;;;;;5019130;28;20025;-92
2022/02/28 04:54:16;;;;;;;7.15;4.40;;;5.30;99.90;;;;;;5019229;28;20071;-92
2022/02/28 04:56:42;;;;;;;6.10;4.03;;;5.70;99.90;;;;;;5019009;28;20037;-92
2022/02/28 04:59:08;;;;;;;5.65;3.88;;;5.20;99.90;;;;;;5018829;28;20029;-92
2022/02/28 05:01:34;;;;;;;5.28;4.28;;;5.10;99.90;;;;;;5036701;28;20029;-92
2022/02/28 05:04:00;;;;;;;5.45;4.30;;;5.10;99.90;;;;;;5037145;28;20032;-92
2022/02/28 05:06:26;;;;;;;6.97;4.38;;;5.30;99.90;;;;;;5035573;28;20033;-90
2022/02/28 05:08:53;;;;;;;7.43;4.68;;;5.20;99.90;;;;;;5035701;28;20481;-92
2022/02/28 05:11:18;;;;;;;6.82;4.40;;;5.20;99.90;;;;;;5035645;28;20068;-92
2022/02/28 05:13:44;;;;;;;6.47;4.35;;;5.10;99.90;;;;;;5036464;28;20426;-91
2022/02/28 05:16:10;;;;;;;5.00;3.88;;;5.10;99.90;;;;;;5038293;28;20079;-92
2022/02/28 05:18:36;;;;;;;7.25;4.50;;;5.20;99.90;;;;;;5038640;28;20485;-91
2022/02/28 05:21:02;;;;;;;5.15;3.80;;;5.20;99.90;;;;;;5036903;28;20120;-92
2022/02/28 05:23:27;;;;;;;6.97;4.35;;;5.20;99.90;;;;;;5036202;28;20037;-91
2022/02/28 05:25:53;;;;;;;8.25;4.30;;;5.70;99.90;;;;;;5035224;28;20029;-92
2022/02/28 05:28:19;;;;;;;6.32;4.45;;;5.70;99.90;;;;;;5035272;28;20030;-92
2022/02/28 05:30:47;;;;;;;8.65;4.63;;;5.70;99.90;;;;;;5018233;28;20056;-92
2022/02/28 05:33:14;;;;;;;5.60;4.05;;;5.20;1.00;;;;;;5036276;28;20025;-92
2022/02/28 05:35:40;;;;;;;5.15;4.13;;;5.10;1.00;;;;;;5036216;28;20056;-92
2022/02/28 05:38:05;;;;;;;7.88;4.10;;;5.20;99.90;;;;;;5022492;28;20502;-91
2022/02/28 05:40:32;;;;;;;9.70;4.80;;;5.30;99.90;;;;;;5007369;28;20041;-92
2022/02/28 05:42:58;;;;;;;6.43;4.15;;;5.30;99.90;;;;;;5035993;28;20032;-92
2022/02/28 05:45:23;;;;;;;6.22;4.07;;;5.30;99.90;;;;;;5035663;28;20026;-92
2022/02/28 05:47:49;;;;;;;7.93;3.80;;;5.40;99.90;;;;;;5036219;28;20072;-92
2022/02/28 05:50:15;;;;;;;5.40;4.07;;;4.90;99.90;;;;;;5034933;28;20025;-92
2022/02/28 05:52:40;;;;;;;8.55;4.38;;;5.00;99.90;;;;;;5028266;28;20558;-92
2022/02/28 05:55:07;;;;;;;8.07;4.15;;;4.90;99.90;;;;;;5035546;28;20049;-92
2022/02/28 05:57:37;;;;;;;7.43;4.13;;;4.60;1.00;;;;;;5035889;28;20481;-92
2022/02/28 06:00:05;;;;;;;9.80;4.32;;;5.00;1.00;;;;;;5034798;28;20580;-92
2022/02/28 06:02:31;;;;;;;9.13;4.53;;;5.10;1.00;;;;;;5020773;28;20030;-92
2022/02/28 06:04:56;;;;;;;9.57;4.53;;;5.50;99.90;;;;;;5035556;28;20084;-92
2022/02/28 06:07:22;;;;;;;9.93;4.90;;;5.10;99.90;;;;;;5019499;28;20029;-93
2022/02/28 06:09:48;;;;;;;7.25;4.63;;;5.10;99.90;;;;;;5035322;28;20037;-92
2022/02/28 06:12:13;;;;;;;8.93;5.15;;;5.60;99.90;;;;;;5035146;28;20032;-92
2022/02/28 06:14:39;;;;;;;7.88;4.45;;;5.00;99.90;;;;;;5032218;28;20029;-92
2022/02/28 06:17:04;;;;;;;9.65;4.82;;;5.70;99.90;;;;;;5035870;28;20385;-92
2022/02/28 06:19:30;;;;;;;9.35;5.68;;;5.30;99.90;;;;;;5017717;28;20516;-92
2022/02/28 06:21:57;;;;;;;7.30;4.75;;;4.90;99.90;;;;;;5033903;28;20109;-92
2022/02/28 06:24:23;;;;;;;9.63;5.28;;;5.50;1.00;;;;;;5034136;28;20030;-92
2022/02/28 06:26:48;;;;;;;11.15;5.20;;;5.00;99.90;;;;;;5019910;28;20025;-92
2022/02/28 06:29:14;;;;;;;8.30;4.68;;;5.00;99.90;;;;;;5027480;28;20091;-91
2022/02/28 06:31:43;;;;;;;6.88;5.13;;;5.00;99.90;;;;;;5033842;28;20048;-92
2022/02/28 06:34:10;;;;;;;10.07;5.18;;;5.50;99.90;;;;;;5034554;28;20040;-92
2022/02/28 06:36:36;;;;;;;7.88;4.72;;;5.00;1.00;;;;;;5034003;28;20108;-92
2022/02/28 06:39:04;;;;;;;10.82;5.20;;;5.60;1.00;;;;;;5024381;28;20045;-93
2022/02/28 06:41:29;;;;;;;8.65;5.40;;;5.70;1.00;;;;;;5017213;28;20037;-91
2022/02/28 06:43:55;;;;;;;9.98;5.60;;;5.10;99.90;;;;;;5034497;28;20033;-92
2022/02/28 06:46:21;;;;;;;7.35;4.95;;;5.70;99.90;;;;;;5034541;28;20025;-92
2022/02/28 06:48:46;;;;;;;9.75;5.10;;;5.50;99.90;;;;;;5034405;28;20029;-92
2022/02/28 06:51:14;;;;;;;7.53;4.90;;;5.70;99.90;;;;;;5033078;28;20060;-92
2022/02/28 06:53:40;;;;;;;8.73;4.72;;;5.60;99.90;;;;;;5033867;28;20034;-92
2022/02/28 06:56:06;;;;;;;8.95;4.78;;;5.10;99.90;;;;;;5034760;28;20021;-91
2022/02/28 06:58:32;;;;;;;8.85;4.88;;;5.20;99.90;;;;;;5016934;28;20079;-92
2022/02/28 07:00:57;;;;;;;11.68;4.85;;;5.30;99.90;;;;;;5017202;28;20040;-92
2022/02/28 07:03:23;;;;;;;9.73;5.57;;;5.30;99.90;;;;;;5034726;28;20025;-92
2022/02/28 07:05:52;;;;;;;9.02;4.88;;;5.50;99.90;;;;;;5033784;28;20413;-92
2022/02/28 07:08:19;;;;;;;9.50;4.95;;;5.40;99.90;;;;;;5033115;28;20124;-92
2022/02/28 07:10:45;;;;;;;8.32;4.85;;;5.40;1.00;;;;;;5016795;28;20375;-85
2022/02/28 07:13:12;;;;;;;9.93;5.13;;;5.70;99.90;;;;;;5014621;28;20117;-86
2022/02/28 07:15:42;;;;;;;10.88;5.05;;;6.00;99.90;;;;;;5031324;28;20108;-86
2022/02/28 07:18:08;;;;;;;8.50;4.78;;;6.30;99.90;;;;;;5031173;28;20025;-86
2022/02/28 07:20:34;;;;;;;10.52;5.68;;;6.30;99.90;;;;;;5030923;28;20037;-86
2022/02/28 07:23:00;;;;;;;10.70;5.47;;;6.30;99.90;;;;;;5031377;28;20030;-85
2022/02/28 07:25:26;;;;;;;12.38;5.20;;;6.20;99.90;;;;;;5031654;28;20485;-90
2022/02/28 07:27:51;;;;;;;8.50;5.53;;;6.40;99.90;;;;;;5029950;28;20060;-87
2022/02/28 07:30:17;;;;;;;10.98;5.35;;;6.40;99.90;;;;;;5016307;28;20065;-85
2022/02/28 07:32:43;;;;;;;9.95;5.07;;;6.20;99.90;;;;;;5030107;28;20060;-84
2022/02/28 07:35:10;;;;;;;10.48;5.88;;;6.30;99.90;;;;;;5014359;28;20524;-86
2022/02/28 07:37:35;;;;;;;7.40;4.90;;;6.30;99.90;;;;;;5032048;28;20052;-85
2022/02/28 07:40:05;;;;;;;10.57;5.20;;;6.30;99.90;;;;;;5033505;28;20045;-86
2022/02/28 07:42:31;;;;;;;9.93;5.32;;;6.20;99.90;;;;;;5034878;28;20076;-87
2022/02/28 07:44:57;;;;;;;8.52;5.05;;;6.80;99.90;;;;;;5034107;28;20493;-87
2022/02/28 07:47:23;;;;;;;9.10;5.32;;;6.50;99.90;;;;;;5019990;28;20507;-84
2022/02/28 07:49:48;;;;;;;12.15;5.57;;;6.80;99.90;;;;;;5035249;28;20029;-96
2022/02/28 07:52:14;;;;;;;9.80;5.43;;;6.70;99.90;;;;;;5035203;28;20064;-93
2022/02/28 07:54:40;;;;;;;8.30;4.80;;;7.00;99.90;;;;;;5016580;28;20037;-87
2022/02/28 07:57:05;;;;;;;10.77;4.80;;;7.00;99.90;;;;;;5035242;28;20064;-86
2022/02/28 07:59:31;;;;;;;7.97;4.88;;;6.90;99.90;;;;;;5033532;28;20045;-82
2022/02/28 08:01:57;;;;;;;10.82;4.70;;;7.00;99.90;;;;;;5033955;28;20018;-82
2022/02/28 08:04:22;;;;;;;7.25;4.57;;;6.90;99.90;;;;;;5033542;28;20033;-84
2022/02/28 08:06:48;;;;;;;9.35;5.22;;;7.10;99.90;;;;;;5016061;28;20025;-86
2022/02/28 08:09:13;;;;;;;7.45;5.30;;;7.00;99.90;;;;;;5018642;28;20374;-88
2022/02/28 08:11:39;;;;;;;8.25;4.88;;;7.10;99.90;;;;;;5008349;28;20033;-87
2022/02/28 08:14:05;;;;;;;8.02;5.30;;;7.30;99.90;;;;;;5028292;28;20128;-87
2022/02/28 08:16:30;;;;;;;7.78;4.65;;;7.50;99.90;;;;;;5033624;28;20025;-86
2022/02/28 08:18:56;;;;;;;7.90;4.80;;;7.40;99.90;;;;;;5033137;28;20060;-87
2022/02/28 08:21:22;;;;;;;8.43;4.40;;;7.40;99.90;;;;;;5033154;28;20033;-85
2022/02/28 08:23:47;;;;;;;9.35;4.97;;;7.50;99.90;;;;;;5016301;28;20026;-86
2022/02/28 08:26:13;;;;;;;7.15;4.93;;;7.60;99.90;;;;;;5033435;28;20116;-86
2022/02/28 08:28:39;;;;;;;7.90;4.57;;;7.90;99.90;;;;;;5016088;28;20022;-86
2022/02/28 08:31:04;;;;;;;7.88;4.68;;;8.30;99.90;;;;;;5033533;28;20495;-86
2022/02/28 08:33:30;;;;;;;11.15;4.55;;;8.50;99.90;;;;;;5034246;28;20028;-87
2022/02/28 08:35:56;;;;;;;8.73;4.80;;;8.80;99.90;;;;;;5032910;28;20053;-88
2022/02/28 08:38:22;;;;;;;8.98;4.80;;;9.30;99.90;;;;;;4968314;28;1403867;-87
2022/02/28 08:40:48;;;;;;;5.93;4.53;;;9.50;99.90;;;;;;5016986;28;20060;-86
2022/02/28 08:43:14;;;;;;;6.18;4.40;;;10.00;99.90;;;;;;5035206;28;20018;-86
2022/02/28 08:45:40;;;;;;;6.45;4.10;;;11.20;99.90;;;;;;5034083;28;20557;-88
2022/02/28 08:48:06;;;;;;;6.13;4.53;;;12.20;99.90;;;;;;5016982;28;20065;-86
2022/02/28 08:50:33;;;;;;;5.50;4.40;;;12.80;99.90;;;;;;5033248;28;20044;-86
2022/02/28 08:52:59;;;;;;;6.53;4.35;;;13.40;99.90;;;;;;5015570;28;20021;-86
2022/02/28 08:55:25;;;;;;;6.53;4.65;;;13.60;99.90;;;;;;5017474;28;20044;-87
2022/02/28 08:57:51;;;;;;;8.63;4.78;;;14.10;99.90;;;;;;5033035;28;20139;-87
2022/02/28 09:00:17;;;;;;;6.97;4.50;;;14.80;99.90;;;;;;5033678;28;20030;-86
2022/02/28 09:02:43;;;;;;;7.03;4.72;;;14.90;99.90;;;;;;5032987;28;20032;-86
2022/02/28 09:05:09;;;;;;;6.47;4.90;;;15.40;99.90;;;;;;5027335;28;20026;-85
2022/02/28 09:07:35;;;;;;;7.75;5.53;;;15.30;99.90;;;;;;5022447;28;20032;-86
2022/02/28 09:10:01;;;;;;;6.15;4.63;;;15.20;99.90;;;;;;5032892;28;20033;-86
2022/02/28 09:12:27;;;;;;;6.65;4.82;;;15.40;99.90;;;;;;5033461;28;20014;-86
2022/02/28 09:14:53;;;;;;;6.00;4.70;;;15.70;99.90;;;;;;5032297;28;20057;-86
2022/02/28 09:17:19;;;;;;;11.45;5.57;;;15.80;99.90;;;;;;5033274;28;20106;-85
2022/02/28 09:19:44;;;;;;;7.30;5.07;;;16.20;99.90;;;;;;5033099;28;20490;-85
2022/02/28 09:22:10;;;;;;;7.28;4.88;;;16.80;99.90;;;;;;5033056;28;20468;-85
2022/02/28 09:24:36;;;;;;;7.28;5.03;;;16.80;99.90;;;;;;5033397;28;20594;-86
2022/02/28 09:27:03;;;;;;;6.75;4.85;;;16.60;99.90;;;;;;5015671;28;20059;-85
2022/02/28 09:29:29;;;;;;;7.03;4.38;;;17.20;99.90;;;;;;5032520;28;20018;-86
2022/02/28 09:31:58;;;;;;;6.55;4.90;;;17.10;99.90;;;;;;5032852;28;20104;-85
2022/02/28 09:34:25;;;;;;;8.63;4.47;;;17.20;99.90;;;;;;5033134;28;20082;-86
2022/02/28 09:36:51;;;;;;;6.88;4.38;;;17.30;99.90;;;;;;5032539;28;20040;-86
2022/02/28 09:39:18;;;;;;;8.60;4.82;;;17.00;99.90;;;;;;5033231;28;20034;-85
2022/02/28 09:41:44;;;;;;;7.30;4.63;;;16.60;99.90;;;;;;5032639;28;20029;-85
2022/02/28 09:44:14;;;;;;;8.88;4.65;;;17.30;99.90;;;;;;5032579;28;20030;-86
2022/02/28 09:46:41;;;;;;;5.82;4.68;;;17.70;99.90;;;;;;5032369;28;20022;-85
2022/02/28 09:49:08;;;;;;;8.88;4.60;;;17.80;99.90;;;;;;5032780;28;20436;-86
2022/02/28 09:51:34;;;;;;;8.95;6.03;;;17.40;99.90;;;;;;5032657;28;20049;-85
2022/02/28 09:54:00;;;;;;;5.95;4.85;;;17.60;99.90;;;;;;5032700;28;20047;-86
2022/02/28 09:56:26;;;;;;;6.15;4.53;;;18.30;99.90;;;;;;5032619;28;20029;-86
2022/02/28 09:58:52;;;;;;;7.95;5.20;;;18.00;99.90;;;;;;5015683;28;20382;-86
2022/02/28 10:01:17;;;;;;;7.35;4.70;;;17.70;99.90;;;;;;5031864;28;20460;-85
2022/02/28 10:03:43;;;;;;;5.75;4.70;;;18.10;99.90;;;;;;5032209;28;20037;-85
2022/02/28 10:06:09;;;;;;;6.30;4.40;;;18.20;99.90;;;;;;5032768;28;20113;-85
2022/02/28 10:08:50;;;;;;;7.72;5.03;;;19.20;99.90;;;;;;5031929;28;20057;-84
2022/02/28 10:11:24;;;;;;;9.63;4.90;;;19.40;99.90;;;;;;5031919;28;20033;-85
2022/02/28 10:13:52;;;;;;;6.10;4.32;;;19.50;99.90;;;;;;5031486;28;20502;-84
2022/02/28 10:16:30;;;;;;;6.38;4.15;;;19.80;99.90;;;;;;5032081;28;20501;-83
2022/02/28 10:18:56;;;;;;;7.30;4.75;;;20.50;99.90;;;;;;5031671;28;20028;-86
2022/02/28 10:21:42;;;;;;;8.30;4.80;;;20.30;99.90;;;;;;5032407;28;20026;-84
2022/02/28 10:24:10;;;;;;;5.60;4.45;;;19.70;99.90;;;;;;5031729;28;20512;-85
2022/02/28 10:26:57;;;;;;;6.55;4.78;;;19.70;99.90;;;;;;5031324;28;20025;-85
2022/02/28 10:29:27;;;;;;;5.03;4.50;;;20.00;99.90;;;;;;5031979;28;20022;-86
2022/02/28 10:32:00;;;;;;;8.13;4.63;;;21.70;99.90;;;;;;5031611;28;20046;-86
2022/02/28 10:34:28;;;;;;;7.15;4.90;;;22.80;99.90;;;;;;5022699;28;20060;-84
2022/02/28 10:37:00;;;;;;;10.55;5.07;;;23.70;99.90;;;;;;5031467;28;20044;-86
2022/02/28 10:39:41;;;;;;;6.47;4.32;;;23.40;99.90;;;;;;5031914;28;20057;-86
2022/02/28 10:42:16;;;;;;;6.28;4.40;;;23.00;99.90;;;;;;5031288;28;20038;-84
2022/02/28 10:44:42;;;;;;;4.95;3.90;;;23.50;99.90;;;;;;5031139;28;20440;-85
2022/02/28 10:47:11;;;;;;;6.95;4.80;;;23.90;99.90;;;;;;5031487;28;20059;-86
2022/02/28 10:49:38;;;;;;;7.57;4.78;;;24.00;99.90;;;;;;5015150;28;20493;-86
2022/02/28 10:52:07;;;;;;;6.50;4.75;;;24.70;99.90;;;;;;5030773;28;20717;-86
2022/02/28 10:54:40;;;;;;;6.22;4.35;;;25.20;99.90;;;;;;5019192;28;20105;-86
2022/02/28 10:57:15;;;;;;;8.15;4.55;;;24.90;99.90;;;;;;5031728;28;20025;-86
2022/02/28 10:59:51;;;;;;;7.80;4.43;;;24.50;99.90;;;;;;5031358;28;20041;-85
2022/02/28 11:02:34;;;;;;;5.10;4.00;;;26.10;99.90;;;;;;5031034;28;20013;-86
2022/02/28 11:05:15;;;;;;;5.50;4.45;;;26.00;99.90;;;;;;5030930;28;20029;-86
2022/02/28 11:07:46;;;;;;;4.90;4.00;;;26.60;99.90;;;;;;5031038;28;20355;-85
2022/02/28 11:10:14;;;;;;;6.25;3.92;;;26.20;99.90;;;;;;5030405;28;20062;-85
2022/02/28 11:12:40;;;;;;;7.22;4.30;;;25.90;99.90;;;;;;5031571;28;20068;-86
2022/02/28 11:15:18;;;;;;;6.32;4.18;;;25.80;99.90;;;;;;5031397;28;20431;-87
2022/02/28 11:17:46;;;;;;;7.13;4.88;;;25.40;99.90;;;;;;5031189;28;20036;-85
2022/02/28 11:20:17;;;;;;;5.95;4.10;;;24.70;99.90;;;;;;5030464;28;20408;-84
2022/02/28 11:22:45;;;;;;;5.18;4.28;;;24.80;99.90;;;;;;5025110;28;20022;-84
2022/02/28 11:25:13;;;;;;;5.05;4.38;;;24.80;99.90;;;;;;5023246;28;20026;-84
2022/02/28 11:27:41;;;;;;;6.72;4.38;;;25.00;99.90;;;;;;5027471;28;20032;-84
2022/02/28 11:30:12;;;;;;;7.70;4.30;;;27.00;99.90;;;;;;5031342;28;20028;-83
2022/02/28 11:32:39;;;;;;;5.88;4.22;;;25.60;99.90;;;;;;5014586;28;20565;-86
2022/02/28 11:35:45;;;;;;;5.30;3.92;;;25.10;99.90;;;;;;5030645;28;20509;-86
2022/02/28 11:38:17;;;;;;;4.82;3.53;;;25.90;99.90;;;;;;5030429;28;20430;-84
2022/02/28 11:40:44;;;;;;;4.95;3.95;;;25.30;99.90;;;;;;5030166;28;20034;-84
2022/02/28 11:43:19;;;;;;;5.82;3.60;;;25.30;99.90;;;;;;5031130;28;20018;-84
2022/02/28 11:46:06;;;;;;;5.25;4.20;;;24.60;99.90;;;;;;5030617;28;20033;-83
2022/02/28 11:48:34;;;;;;;6.63;4.10;;;25.50;99.90;;;;;;5027266;28;20022;-85
2022/02/28 11:51:04;;;;;;;5.18;3.60;;;26.00;99.90;;;;;;5030890;28;20018;-84
2022/02/28 11:53:57;;;;;;;5.20;4.20;;;25.60;99.90;;;;;;5030459;28;20099;-85
2022/02/28 11:56:22;;;;;;;5.00;4.45;;;25.80;99.90;;;;;;5030450;28;20371;-85
2022/02/28 11:58:56;;;;;;;6.35;4.10;;;25.50;99.90;;;;;;5030777;28;20036;-87
2022/02/28 12:01:28;;;;;;;5.00;4.30;;;26.40;99.90;;;;;;5023365;28;20030;-88
2022/02/28 12:04:16;;;;;;;4.40;4.00;;;26.60;99.90;;;;;;5030840;28;20046;-88
2022/02/28 12:06:53;;;;;;;8.07;4.05;;;26.30;99.90;;;;;;5029168;28;20032;-86
2022/02/28 12:09:31;;;;;;;5.57;3.80;;;25.40;99.90;;;;;;5029820;28;20052;-86
2022/02/28 12:12:27;;;;;;;3.70;3.25;;;26.70;99.90;;;;;;5030572;28;20033;-86
2022/02/28 12:14:56;;;;;;;5.07;3.67;;;26.20;99.90;;;;;;5030179;28;20124;-86
2022/02/28 12:17:40;;;;;;;4.55;3.45;;;26.60;99.90;;;;;;5030458;28;20025;-87
2022/02/28 12:20:18;;;;;;;5.65;3.85;;;27.80;99.90;;;;;;5030208;28;20048;-86
2022/02/28 12:22:55;;;;;;;4.60;3.67;;;28.50;99.90;;;;;;5030410;28;20030;-85
2022/02/28 12:25:45;;;;;;;5.57;3.67;;;26.90;99.90;;;;;;5033876;28;20444;-85
2022/02/28 12:28:24;;;;;;;6.20;4.55;;;26.70;99.90;;;;;;5019972;28;20033;-85
2022/02/28 12:30:59;;;;;;;5.70;4.10;;;25.70;99.90;;;;;;5034363;28;20032;-86
2022/02/28 12:33:25;;;;;;;7.18;4.28;;;25.10;99.90;;;;;;5034456;28;20029;-84
2022/02/28 12:35:54;;;;;;;6.53;3.95;;;25.80;99.90;;;;;;5033661;28;20117;-85
2022/02/28 12:38:25;;;;;;;4.97;3.47;;;26.30;99.90;;;;;;5033573;28;20053;-85
2022/02/28 12:40:57;;;;;;;3.70;3.40;;;25.60;99.90;;;;;;5033547;28;20034;-85
2022/02/28 12:43:26;;;;;;;6.18;3.80;;;26.10;99.90;;;;;;5033839;28;20022;-85
2022/02/28 12:45:55;;;;;;;6.80;4.35;;;26.10;99.90;;;;;;5033979;28;20037;-85
2022/02/28 12:48:22;;;;;;;5.55;4.47;;;25.70;99.90;;;;;;5034402;28;20026;-86
2022/02/28 12:50:56;;;;;;;7.70;4.93;;;25.50;99.90;;;;;;5033139;28;20036;-85
2022/02/28 12:53:25;;;;;;;5.38;4.88;;;26.80;99.90;;;;;;5033259;28;20412;-85
2022/02/28 12:55:53;;;;;;;7.38;4.82;;;26.70;99.90;;;;;;5033879;28;20038;-85